sensor_id;sensor_type;location;lat;lon;timestamp;P1;durP1;ratioP1;P2;durP2;ratioP2
9398;SDS011;4739;49.334;8.792;2023-02-26T00:01:53;1.93;;;1.73;;
9398;SDS011;4739;49.334;8.792;2023-02-26T00:04:22;3.43;;;1.80;;
9398;SDS011;4739;49.334;8.792;2023-02-26T00:06:48;2.30;;;2.00;;
9398;SDS011;4739;49.334;8.792;2023-02-26T00:09:17;3.33;;;1.90;;
9398;SDS011;4739;49.334;8.792;2023-02-26T00:11:43;4.67;;;2.40;;
9398;SDS011;4739;49.334;8.792;2023-02-26T00:14:10;4.17;;;2.70;;
9398;SDS011;4739;49.334;8.792;2023-02-26T00:16:38;7.23;;;3.20;;
9398;SDS011;4739;49.334;8.792;2023-02-26T00:19:05;6.33;;;2.77;;
9398;SDS011;4739;49.334;8.792;2023-02-26T00:21:34;3.53;;;2.30;;
9398;SDS011;4739;49.334;8.792;2023-02-26T00:24:00;2.50;;;1.57;;
9398;SDS011;4739;49.334;8.792;2023-02-26T00:26:27;2.70;;;1.70;;
9398;SDS011;4739;49.334;8.792;2023-02-26T00:28:53;2.60;;;1.73;;
9398;SDS011;4739;49.334;8.792;2023-02-26T00:31:20;5.17;;;1.73;;
9398;SDS011;4739;49.334;8.792;2023-02-26T00:33:50;3.63;;;1.47;;
9398;SDS011;4739;49.334;8.792;2023-02-26T00:36:23;1.80;;;1.60;;
9398;SDS011;4739;49.334;8.792;2023-02-26T00:39:00;3.10;;;1.57;;
9398;SDS011;4739;49.334;8.792;2023-02-26T00:41:27;5.57;;;2.80;;
9398;SDS011;4739;49.334;8.792;2023-02-26T00:43:53;10.40;;;4.67;;
9398;SDS011;4739;49.334;8.792;2023-02-26T00:51:20;9.57;;;4.40;;
9398;SDS011;4739;49.334;8.792;2023-02-26T00:53:58;6.97;;;3.13;;
9398;SDS011;4739;49.334;8.792;2023-02-26T00:56:28;5.03;;;2.33;;
9398;SDS011;4739;49.334;8.792;2023-02-26T00:58:54;4.97;;;1.97;;
9398;SDS011;4739;49.334;8.792;2023-02-26T01:01:20;3.50;;;2.40;;
9398;SDS011;4739;49.334;8.792;2023-02-26T01:03:46;3.17;;;1.73;;
9398;SDS011;4739;49.334;8.792;2023-02-26T01:06:12;5.73;;;1.90;;
9398;SDS011;4739;49.334;8.792;2023-02-26T01:08:42;3.17;;;1.70;;
9398;SDS011;4739;49.334;8.792;2023-02-26T01:11:09;4.97;;;1.83;;
9398;SDS011;4739;49.334;8.792;2023-02-26T01:13:35;4.03;;;2.20;;
9398;SDS011;4739;49.334;8.792;2023-02-26T01:16:03;6.67;;;2.87;;
9398;SDS011;4739;49.334;8.792;2023-02-26T01:18:37;4.87;;;2.17;;
9398;SDS011;4739;49.334;8.792;2023-02-26T01:21:07;3.67;;;2.27;;
9398;SDS011;4739;49.334;8.792;2023-02-26T01:23:38;6.80;;;4.07;;
9398;SDS011;4739;49.334;8.792;2023-02-26T01:26:06;9.80;;;4.27;;
9398;SDS011;4739;49.334;8.792;2023-02-26T01:28:35;6.73;;;3.80;;
9398;SDS011;4739;49.334;8.792;2023-02-26T01:31:02;3.93;;;2.40;;
9398;SDS011;4739;49.334;8.792;2023-02-26T01:41:28;3.67;;;1.67;;
9398;SDS011;4739;49.334;8.792;2023-02-26T01:46:38;3.23;;;2.57;;
9398;SDS011;4739;49.334;8.792;2023-02-26T01:49:12;2.57;;;1.83;;
9398;SDS011;4739;49.334;8.792;2023-02-26T01:51:46;2.40;;;2.20;;
9398;SDS011;4739;49.334;8.792;2023-02-26T01:54:14;2.43;;;1.90;;
9398;SDS011;4739;49.334;8.792;2023-02-26T01:56:40;2.30;;;1.77;;
9398;SDS011;4739;49.334;8.792;2023-02-26T01:59:07;3.07;;;1.50;;
9398;SDS011;4739;49.334;8.792;2023-02-26T02:01:37;3.30;;;1.73;;
9398;SDS011;4739;49.334;8.792;2023-02-26T02:04:03;1.90;;;1.43;;
9398;SDS011;4739;49.334;8.792;2023-02-26T02:06:30;2.83;;;1.60;;
9398;SDS011;4739;49.334;8.792;2023-02-26T02:08:56;3.87;;;1.70;;
9398;SDS011;4739;49.334;8.792;2023-02-26T02:11:22;2.53;;;1.73;;
9398;SDS011;4739;49.334;8.792;2023-02-26T02:16:31;2.17;;;1.50;;
9398;SDS011;4739;49.334;8.792;2023-02-26T02:21:45;1.80;;;1.57;;
9398;SDS011;4739;49.334;8.792;2023-02-26T02:31:34;4.10;;;1.87;;
9398;SDS011;4739;49.334;8.792;2023-02-26T02:34:06;3.83;;;1.80;;
9398;SDS011;4739;49.334;8.792;2023-02-26T02:41:48;6.00;;;1.90;;
9398;SDS011;4739;49.334;8.792;2023-02-26T02:44:16;3.73;;;1.80;;
9398;SDS011;4739;49.334;8.792;2023-02-26T02:46:44;1.47;;;1.30;;
9398;SDS011;4739;49.334;8.792;2023-02-26T02:49:22;1.40;;;1.30;;
9398;SDS011;4739;49.334;8.792;2023-02-26T02:51:57;3.80;;;2.00;;
9398;SDS011;4739;49.334;8.792;2023-02-26T02:56:52;2.50;;;1.70;;
9398;SDS011;4739;49.334;8.792;2023-02-26T03:01:47;2.87;;;1.93;;
9398;SDS011;4739;49.334;8.792;2023-02-26T03:04:15;2.87;;;1.60;;
9398;SDS011;4739;49.334;8.792;2023-02-26T03:06:41;3.17;;;1.40;;
9398;SDS011;4739;49.334;8.792;2023-02-26T03:09:10;2.63;;;1.73;;
9398;SDS011;4739;49.334;8.792;2023-02-26T03:11:36;1.97;;;1.60;;
9398;SDS011;4739;49.334;8.792;2023-02-26T03:14:03;2.40;;;1.30;;
9398;SDS011;4739;49.334;8.792;2023-02-26T03:19:21;2.97;;;1.83;;
9398;SDS011;4739;49.334;8.792;2023-02-26T03:24:34;3.57;;;1.50;;
9398;SDS011;4739;49.334;8.792;2023-02-26T03:27:14;2.07;;;1.30;;
9398;SDS011;4739;49.334;8.792;2023-02-26T03:29:46;2.10;;;1.90;;
9398;SDS011;4739;49.334;8.792;2023-02-26T03:32:18;5.80;;;1.70;;
9398;SDS011;4739;49.334;8.792;2023-02-26T03:34:52;3.80;;;2.07;;
9398;SDS011;4739;49.334;8.792;2023-02-26T03:37:25;2.93;;;1.83;;
9398;SDS011;4739;49.334;8.792;2023-02-26T03:39:54;3.67;;;2.20;;
9398;SDS011;4739;49.334;8.792;2023-02-26T03:42:41;2.77;;;1.70;;
9398;SDS011;4739;49.334;8.792;2023-02-26T03:45:10;2.87;;;2.03;;
9398;SDS011;4739;49.334;8.792;2023-02-26T03:47:38;2.27;;;1.90;;
9398;SDS011;4739;49.334;8.792;2023-02-26T03:50:10;3.33;;;2.10;;
9398;SDS011;4739;49.334;8.792;2023-02-26T03:52:38;3.87;;;1.80;;
9398;SDS011;4739;49.334;8.792;2023-02-26T03:55:07;3.13;;;1.80;;
9398;SDS011;4739;49.334;8.792;2023-02-26T03:57:34;3.17;;;2.27;;
9398;SDS011;4739;49.334;8.792;2023-02-26T04:00:00;3.43;;;2.10;;
9398;SDS011;4739;49.334;8.792;2023-02-26T04:02:28;3.13;;;1.50;;
9398;SDS011;4739;49.334;8.792;2023-02-26T04:04:56;2.00;;;1.50;;
9398;SDS011;4739;49.334;8.792;2023-02-26T04:07:23;3.43;;;1.73;;
9398;SDS011;4739;49.334;8.792;2023-02-26T04:09:50;4.33;;;1.70;;
9398;SDS011;4739;49.334;8.792;2023-02-26T04:12:22;2.33;;;2.13;;
9398;SDS011;4739;49.334;8.792;2023-02-26T04:14:48;4.07;;;1.83;;
9398;SDS011;4739;49.334;8.792;2023-02-26T04:17:15;3.60;;;1.60;;
9398;SDS011;4739;49.334;8.792;2023-02-26T04:19:41;2.73;;;1.97;;
9398;SDS011;4739;49.334;8.792;2023-02-26T04:22:07;3.30;;;1.87;;
9398;SDS011;4739;49.334;8.792;2023-02-26T04:24:33;3.07;;;1.80;;
9398;SDS011;4739;49.334;8.792;2023-02-26T04:26:59;2.87;;;2.20;;
9398;SDS011;4739;49.334;8.792;2023-02-26T04:29:25;2.30;;;1.83;;
9398;SDS011;4739;49.334;8.792;2023-02-26T04:31:51;2.70;;;1.70;;
9398;SDS011;4739;49.334;8.792;2023-02-26T04:34:17;3.17;;;1.87;;
9398;SDS011;4739;49.334;8.792;2023-02-26T04:36:43;3.93;;;1.77;;
9398;SDS011;4739;49.334;8.792;2023-02-26T04:39:10;2.17;;;1.70;;
9398;SDS011;4739;49.334;8.792;2023-02-26T04:41:36;3.37;;;2.27;;
9398;SDS011;4739;49.334;8.792;2023-02-26T04:44:03;2.43;;;1.43;;
9398;SDS011;4739;49.334;8.792;2023-02-26T04:46:29;4.80;;;2.10;;
9398;SDS011;4739;49.334;8.792;2023-02-26T04:48:55;3.70;;;1.83;;
9398;SDS011;4739;49.334;8.792;2023-02-26T04:51:21;2.80;;;1.90;;
9398;SDS011;4739;49.334;8.792;2023-02-26T04:53:47;2.77;;;1.93;;
9398;SDS011;4739;49.334;8.792;2023-02-26T04:56:13;1.90;;;1.80;;
9398;SDS011;4739;49.334;8.792;2023-02-26T04:58:39;4.27;;;2.83;;
9398;SDS011;4739;49.334;8.792;2023-02-26T05:01:05;4.27;;;3.87;;
9398;SDS011;4739;49.334;8.792;2023-02-26T05:03:31;7.23;;;4.47;;
9398;SDS011;4739;49.334;8.792;2023-02-26T05:05:57;3.20;;;2.33;;
9398;SDS011;4739;49.334;8.792;2023-02-26T05:08:23;5.63;;;3.17;;
9398;SDS011;4739;49.334;8.792;2023-02-26T05:10:49;2.73;;;2.27;;
9398;SDS011;4739;49.334;8.792;2023-02-26T05:13:16;6.03;;;2.47;;
9398;SDS011;4739;49.334;8.792;2023-02-26T05:15:42;3.73;;;2.53;;
9398;SDS011;4739;49.334;8.792;2023-02-26T05:18:08;3.90;;;2.17;;
9398;SDS011;4739;49.334;8.792;2023-02-26T05:20:34;4.20;;;2.00;;
9398;SDS011;4739;49.334;8.792;2023-02-26T05:23:00;3.93;;;2.30;;
9398;SDS011;4739;49.334;8.792;2023-02-26T05:25:26;4.20;;;1.80;;
9398;SDS011;4739;49.334;8.792;2023-02-26T05:27:52;3.00;;;2.17;;
9398;SDS011;4739;49.334;8.792;2023-02-26T05:30:18;3.43;;;2.37;;
9398;SDS011;4739;49.334;8.792;2023-02-26T05:32:44;3.40;;;2.23;;
9398;SDS011;4739;49.334;8.792;2023-02-26T05:35:10;2.77;;;2.17;;
9398;SDS011;4739;49.334;8.792;2023-02-26T05:37:36;5.00;;;2.50;;
9398;SDS011;4739;49.334;8.792;2023-02-26T05:40:03;5.70;;;1.90;;
9398;SDS011;4739;49.334;8.792;2023-02-26T05:42:29;3.83;;;1.90;;
9398;SDS011;4739;49.334;8.792;2023-02-26T05:44:55;3.10;;;1.80;;
9398;SDS011;4739;49.334;8.792;2023-02-26T05:47:21;5.00;;;1.77;;
9398;SDS011;4739;49.334;8.792;2023-02-26T05:49:48;5.17;;;1.83;;
9398;SDS011;4739;49.334;8.792;2023-02-26T05:52:14;3.77;;;1.83;;
9398;SDS011;4739;49.334;8.792;2023-02-26T05:54:40;2.37;;;1.70;;
9398;SDS011;4739;49.334;8.792;2023-02-26T05:57:06;5.03;;;1.97;;
9398;SDS011;4739;49.334;8.792;2023-02-26T05:59:32;3.57;;;1.60;;
9398;SDS011;4739;49.334;8.792;2023-02-26T06:01:57;4.40;;;2.00;;
9398;SDS011;4739;49.334;8.792;2023-02-26T06:04:23;3.47;;;2.10;;
9398;SDS011;4739;49.334;8.792;2023-02-26T06:06:49;3.80;;;1.70;;
9398;SDS011;4739;49.334;8.792;2023-02-26T06:09:15;3.63;;;1.70;;
9398;SDS011;4739;49.334;8.792;2023-02-26T06:11:41;3.03;;;1.90;;
9398;SDS011;4739;49.334;8.792;2023-02-26T06:14:07;4.17;;;2.03;;
9398;SDS011;4739;49.334;8.792;2023-02-26T06:16:33;4.50;;;2.13;;
9398;SDS011;4739;49.334;8.792;2023-02-26T06:19:00;4.33;;;2.27;;
9398;SDS011;4739;49.334;8.792;2023-02-26T06:21:26;3.83;;;3.00;;
9398;SDS011;4739;49.334;8.792;2023-02-26T06:23:52;3.97;;;2.90;;
9398;SDS011;4739;49.334;8.792;2023-02-26T06:26:18;4.47;;;2.90;;
9398;SDS011;4739;49.334;8.792;2023-02-26T06:28:44;4.90;;;3.07;;
9398;SDS011;4739;49.334;8.792;2023-02-26T06:31:10;4.73;;;3.67;;
9398;SDS011;4739;49.334;8.792;2023-02-26T06:33:35;6.50;;;3.40;;
9398;SDS011;4739;49.334;8.792;2023-02-26T06:36:01;5.47;;;2.93;;
9398;SDS011;4739;49.334;8.792;2023-02-26T06:38:27;3.80;;;2.53;;
9398;SDS011;4739;49.334;8.792;2023-02-26T06:40:53;4.57;;;2.70;;
9398;SDS011;4739;49.334;8.792;2023-02-26T06:43:19;4.60;;;3.30;;
9398;SDS011;4739;49.334;8.792;2023-02-26T06:45:46;3.83;;;2.70;;
9398;SDS011;4739;49.334;8.792;2023-02-26T06:48:12;4.40;;;2.07;;
9398;SDS011;4739;49.334;8.792;2023-02-26T06:50:38;4.70;;;2.43;;
9398;SDS011;4739;49.334;8.792;2023-02-26T06:53:04;3.80;;;2.00;;
9398;SDS011;4739;49.334;8.792;2023-02-26T06:55:30;4.47;;;2.10;;
9398;SDS011;4739;49.334;8.792;2023-02-26T06:57:56;3.30;;;1.83;;
9398;SDS011;4739;49.334;8.792;2023-02-26T07:00:22;7.20;;;2.10;;
9398;SDS011;4739;49.334;8.792;2023-02-26T07:02:49;5.00;;;1.70;;
9398;SDS011;4739;49.334;8.792;2023-02-26T07:05:15;4.90;;;1.90;;
9398;SDS011;4739;49.334;8.792;2023-02-26T07:07:42;4.53;;;2.53;;
9398;SDS011;4739;49.334;8.792;2023-02-26T07:10:08;5.33;;;2.00;;
9398;SDS011;4739;49.334;8.792;2023-02-26T07:12:35;5.23;;;2.10;;
9398;SDS011;4739;49.334;8.792;2023-02-26T07:15:02;5.57;;;1.97;;
9398;SDS011;4739;49.334;8.792;2023-02-26T07:17:28;4.53;;;1.80;;
9398;SDS011;4739;49.334;8.792;2023-02-26T07:19:54;5.73;;;2.00;;
9398;SDS011;4739;49.334;8.792;2023-02-26T07:22:20;1.60;;;1.50;;
9398;SDS011;4739;49.334;8.792;2023-02-26T07:24:46;3.37;;;1.70;;
9398;SDS011;4739;49.334;8.792;2023-02-26T07:27:13;3.07;;;1.60;;
9398;SDS011;4739;49.334;8.792;2023-02-26T07:29:39;5.53;;;2.80;;
9398;SDS011;4739;49.334;8.792;2023-02-26T07:32:05;3.53;;;1.70;;
9398;SDS011;4739;49.334;8.792;2023-02-26T07:34:31;4.33;;;1.90;;
9398;SDS011;4739;49.334;8.792;2023-02-26T07:36:58;2.37;;;1.77;;
9398;SDS011;4739;49.334;8.792;2023-02-26T07:39:27;5.17;;;2.03;;
9398;SDS011;4739;49.334;8.792;2023-02-26T07:41:53;2.63;;;1.63;;
9398;SDS011;4739;49.334;8.792;2023-02-26T07:44:19;5.43;;;1.80;;
9398;SDS011;4739;49.334;8.792;2023-02-26T07:46:45;3.43;;;1.83;;
9398;SDS011;4739;49.334;8.792;2023-02-26T07:49:11;2.90;;;1.80;;
9398;SDS011;4739;49.334;8.792;2023-02-26T07:51:37;2.47;;;1.50;;
9398;SDS011;4739;49.334;8.792;2023-02-26T07:54:03;5.23;;;2.40;;
9398;SDS011;4739;49.334;8.792;2023-02-26T07:56:29;3.10;;;1.83;;
9398;SDS011;4739;49.334;8.792;2023-02-26T07:58:55;3.80;;;1.90;;
9398;SDS011;4739;49.334;8.792;2023-02-26T08:01:21;3.40;;;1.70;;
9398;SDS011;4739;49.334;8.792;2023-02-26T08:03:47;3.67;;;2.17;;
9398;SDS011;4739;49.334;8.792;2023-02-26T08:06:13;2.20;;;1.80;;
9398;SDS011;4739;49.334;8.792;2023-02-26T08:08:39;4.00;;;1.87;;
9398;SDS011;4739;49.334;8.792;2023-02-26T08:11:05;3.77;;;1.70;;
9398;SDS011;4739;49.334;8.792;2023-02-26T08:13:31;3.03;;;1.80;;
9398;SDS011;4739;49.334;8.792;2023-02-26T08:15:57;3.40;;;1.63;;
9398;SDS011;4739;49.334;8.792;2023-02-26T08:18:23;2.60;;;1.47;;
9398;SDS011;4739;49.334;8.792;2023-02-26T08:20:50;1.73;;;1.40;;
9398;SDS011;4739;49.334;8.792;2023-02-26T08:23:16;2.33;;;1.50;;
9398;SDS011;4739;49.334;8.792;2023-02-26T08:25:42;3.47;;;1.80;;
9398;SDS011;4739;49.334;8.792;2023-02-26T08:28:09;2.07;;;1.60;;
9398;SDS011;4739;49.334;8.792;2023-02-26T08:30:35;4.20;;;1.60;;
9398;SDS011;4739;49.334;8.792;2023-02-26T08:33:01;6.83;;;2.27;;
9398;SDS011;4739;49.334;8.792;2023-02-26T08:35:27;2.53;;;1.90;;
9398;SDS011;4739;49.334;8.792;2023-02-26T08:37:53;3.40;;;1.57;;
9398;SDS011;4739;49.334;8.792;2023-02-26T08:40:19;4.03;;;1.97;;
9398;SDS011;4739;49.334;8.792;2023-02-26T08:42:45;2.53;;;1.90;;
9398;SDS011;4739;49.334;8.792;2023-02-26T08:45:12;4.40;;;1.87;;
9398;SDS011;4739;49.334;8.792;2023-02-26T08:47:38;3.97;;;2.00;;
9398;SDS011;4739;49.334;8.792;2023-02-26T08:50:10;3.40;;;1.60;;
9398;SDS011;4739;49.334;8.792;2023-02-26T08:52:36;5.13;;;1.90;;
9398;SDS011;4739;49.334;8.792;2023-02-26T08:55:02;1.80;;;1.50;;
9398;SDS011;4739;49.334;8.792;2023-02-26T08:57:28;4.97;;;1.90;;
9398;SDS011;4739;49.334;8.792;2023-02-26T08:59:54;3.33;;;1.90;;
9398;SDS011;4739;49.334;8.792;2023-02-26T09:02:20;4.73;;;2.00;;
9398;SDS011;4739;49.334;8.792;2023-02-26T09:04:46;3.60;;;2.07;;
9398;SDS011;4739;49.334;8.792;2023-02-26T09:07:12;2.67;;;1.60;;
9398;SDS011;4739;49.334;8.792;2023-02-26T09:09:38;3.13;;;1.80;;
9398;SDS011;4739;49.334;8.792;2023-02-26T09:12:04;3.40;;;1.70;;
9398;SDS011;4739;49.334;8.792;2023-02-26T09:14:30;3.17;;;1.47;;
9398;SDS011;4739;49.334;8.792;2023-02-26T09:16:56;3.73;;;1.73;;
9398;SDS011;4739;49.334;8.792;2023-02-26T09:19:22;4.50;;;1.53;;
9398;SDS011;4739;49.334;8.792;2023-02-26T09:21:48;2.47;;;1.40;;
9398;SDS011;4739;49.334;8.792;2023-02-26T09:24:14;3.83;;;1.83;;
9398;SDS011;4739;49.334;8.792;2023-02-26T09:26:40;3.87;;;1.70;;
9398;SDS011;4739;49.334;8.792;2023-02-26T09:29:06;2.93;;;1.60;;
9398;SDS011;4739;49.334;8.792;2023-02-26T09:31:32;3.50;;;1.67;;
9398;SDS011;4739;49.334;8.792;2023-02-26T09:33:58;3.77;;;1.80;;
9398;SDS011;4739;49.334;8.792;2023-02-26T09:36:24;4.43;;;1.63;;
9398;SDS011;4739;49.334;8.792;2023-02-26T09:38:51;1.73;;;1.30;;
9398;SDS011;4739;49.334;8.792;2023-02-26T09:41:21;2.73;;;1.60;;
9398;SDS011;4739;49.334;8.792;2023-02-26T09:43:58;3.17;;;1.70;;
9398;SDS011;4739;49.334;8.792;2023-02-26T09:46:35;2.70;;;1.50;;
9398;SDS011;4739;49.334;8.792;2023-02-26T09:51:33;2.83;;;1.30;;
9398;SDS011;4739;49.334;8.792;2023-02-26T09:54:00;2.23;;;1.30;;
9398;SDS011;4739;49.334;8.792;2023-02-26T09:56:31;1.87;;;1.00;;
9398;SDS011;4739;49.334;8.792;2023-02-26T09:58:57;1.80;;;1.20;;
9398;SDS011;4739;49.334;8.792;2023-02-26T10:07:02;3.00;;;1.47;;
9398;SDS011;4739;49.334;8.792;2023-02-26T10:12:22;2.20;;;0.80;;
9398;SDS011;4739;49.334;8.792;2023-02-26T10:17:21;2.67;;;1.73;;
9398;SDS011;4739;49.334;8.792;2023-02-26T10:19:48;2.57;;;1.13;;
9398;SDS011;4739;49.334;8.792;2023-02-26T10:22:19;1.20;;;1.00;;
9398;SDS011;4739;49.334;8.792;2023-02-26T10:24:50;1.77;;;1.30;;
9398;SDS011;4739;49.334;8.792;2023-02-26T10:27:22;1.03;;;0.80;;
9398;SDS011;4739;49.334;8.792;2023-02-26T10:29:57;1.27;;;0.80;;
9398;SDS011;4739;49.334;8.792;2023-02-26T10:32:27;1.10;;;0.90;;
9398;SDS011;4739;49.334;8.792;2023-02-26T10:34:55;1.23;;;0.90;;
9398;SDS011;4739;49.334;8.792;2023-02-26T10:40:03;3.50;;;0.90;;
9398;SDS011;4739;49.334;8.792;2023-02-26T10:42:42;2.03;;;1.10;;
9398;SDS011;4739;49.334;8.792;2023-02-26T10:50:41;5.37;;;3.23;;
9398;SDS011;4739;49.334;8.792;2023-02-26T10:53:10;7.37;;;2.70;;
9398;SDS011;4739;49.334;8.792;2023-02-26T10:58:17;2.27;;;1.60;;
9398;SDS011;4739;49.334;8.792;2023-02-26T11:00:46;1.30;;;0.80;;
9398;SDS011;4739;49.334;8.792;2023-02-26T11:03:15;1.20;;;1.00;;
9398;SDS011;4739;49.334;8.792;2023-02-26T11:05:42;1.00;;;0.83;;
9398;SDS011;4739;49.334;8.792;2023-02-26T11:08:14;1.53;;;0.70;;
9398;SDS011;4739;49.334;8.792;2023-02-26T11:10:44;1.30;;;0.70;;
9398;SDS011;4739;49.334;8.792;2023-02-26T11:13:12;0.70;;;0.70;;
9398;SDS011;4739;49.334;8.792;2023-02-26T11:15:38;1.23;;;0.80;;
9398;SDS011;4739;49.334;8.792;2023-02-26T11:18:04;1.83;;;1.00;;
9398;SDS011;4739;49.334;8.792;2023-02-26T11:22:56;2.50;;;0.83;;
9398;SDS011;4739;49.334;8.792;2023-02-26T11:25:25;1.67;;;1.30;;
9398;SDS011;4739;49.334;8.792;2023-02-26T11:27:57;1.93;;;0.93;;
9398;SDS011;4739;49.334;8.792;2023-02-26T11:30:24;1.70;;;0.70;;
9398;SDS011;4739;49.334;8.792;2023-02-26T11:32:52;1.17;;;0.60;;
9398;SDS011;4739;49.334;8.792;2023-02-26T11:35:19;1.07;;;0.57;;
9398;SDS011;4739;49.334;8.792;2023-02-26T11:37:48;0.80;;;0.80;;
9398;SDS011;4739;49.334;8.792;2023-02-26T11:40:16;1.60;;;1.00;;
9398;SDS011;4739;49.334;8.792;2023-02-26T11:42:44;1.50;;;0.93;;
9398;SDS011;4739;49.334;8.792;2023-02-26T11:45:13;3.53;;;1.00;;
9398;SDS011;4739;49.334;8.792;2023-02-26T11:47:41;0.90;;;0.70;;
9398;SDS011;4739;49.334;8.792;2023-02-26T11:50:14;1.03;;;0.87;;
9398;SDS011;4739;49.334;8.792;2023-02-26T11:52:44;1.20;;;1.10;;
9398;SDS011;4739;49.334;8.792;2023-02-26T11:55:19;1.33;;;1.23;;
9398;SDS011;4739;49.334;8.792;2023-02-26T11:57:49;2.70;;;0.97;;
9398;SDS011;4739;49.334;8.792;2023-02-26T12:00:22;1.47;;;1.30;;
9398;SDS011;4739;49.334;8.792;2023-02-26T12:02:48;1.83;;;1.33;;
9398;SDS011;4739;49.334;8.792;2023-02-26T12:05:15;1.17;;;0.90;;
9398;SDS011;4739;49.334;8.792;2023-02-26T12:07:41;0.97;;;0.70;;
9398;SDS011;4739;49.334;8.792;2023-02-26T12:10:17;0.87;;;0.60;;
9398;SDS011;4739;49.334;8.792;2023-02-26T12:15:36;1.00;;;0.60;;
9398;SDS011;4739;49.334;8.792;2023-02-26T12:18:12;0.87;;;0.60;;
9398;SDS011;4739;49.334;8.792;2023-02-26T12:20:46;0.67;;;0.50;;
9398;SDS011;4739;49.334;8.792;2023-02-26T12:25:50;1.17;;;0.87;;
9398;SDS011;4739;49.334;8.792;2023-02-26T12:41:46;1.73;;;1.63;;
9398;SDS011;4739;49.334;8.792;2023-02-26T12:44:18;1.33;;;0.97;;
9398;SDS011;4739;49.334;8.792;2023-02-26T12:54:17;1.30;;;0.90;;
9398;SDS011;4739;49.334;8.792;2023-02-26T13:02:44;1.40;;;1.07;;
9398;SDS011;4739;49.334;8.792;2023-02-26T13:13:25;0.43;;;0.43;;
9398;SDS011;4739;49.334;8.792;2023-02-26T13:16:02;0.50;;;0.50;;
9398;SDS011;4739;49.334;8.792;2023-02-26T13:21:04;0.60;;;0.60;;
9398;SDS011;4739;49.334;8.792;2023-02-26T13:23:35;0.40;;;0.40;;
9398;SDS011;4739;49.334;8.792;2023-02-26T13:26:05;0.43;;;0.43;;
9398;SDS011;4739;49.334;8.792;2023-02-26T13:31:07;0.60;;;0.40;;
9398;SDS011;4739;49.334;8.792;2023-02-26T13:33:33;0.47;;;0.40;;
9398;SDS011;4739;49.334;8.792;2023-02-26T13:36:00;0.57;;;0.50;;
9398;SDS011;4739;49.334;8.792;2023-02-26T13:43:28;0.93;;;0.80;;
9398;SDS011;4739;49.334;8.792;2023-02-26T13:48:40;0.70;;;0.70;;
9398;SDS011;4739;49.334;8.792;2023-02-26T13:53:35;1.30;;;0.63;;
9398;SDS011;4739;49.334;8.792;2023-02-26T13:56:21;0.57;;;0.50;;
9398;SDS011;4739;49.334;8.792;2023-02-26T14:01:34;2.10;;;0.83;;
9398;SDS011;4739;49.334;8.792;2023-02-26T14:06:54;1.77;;;0.70;;
9398;SDS011;4739;49.334;8.792;2023-02-26T14:16:49;1.90;;;0.73;;
9398;SDS011;4739;49.334;8.792;2023-02-26T14:21:48;0.60;;;0.50;;
9398;SDS011;4739;49.334;8.792;2023-02-26T14:24:15;0.80;;;0.50;;
9398;SDS011;4739;49.334;8.792;2023-02-26T14:26:44;0.50;;;0.50;;
9398;SDS011;4739;49.334;8.792;2023-02-26T14:29:15;0.93;;;0.70;;
9398;SDS011;4739;49.334;8.792;2023-02-26T14:34:32;0.70;;;0.53;;
9398;SDS011;4739;49.334;8.792;2023-02-26T14:37:01;0.70;;;0.70;;
9398;SDS011;4739;49.334;8.792;2023-02-26T14:39:41;0.67;;;0.60;;
9398;SDS011;4739;49.334;8.792;2023-02-26T14:42:11;0.70;;;0.40;;
9398;SDS011;4739;49.334;8.792;2023-02-26T14:44:40;0.50;;;0.50;;
9398;SDS011;4739;49.334;8.792;2023-02-26T14:47:07;1.07;;;0.70;;
9398;SDS011;4739;49.334;8.792;2023-02-26T14:49:34;0.90;;;0.80;;
9398;SDS011;4739;49.334;8.792;2023-02-26T14:57:32;0.97;;;0.50;;
9398;SDS011;4739;49.334;8.792;2023-02-26T15:05:24;9.90;;;6.07;;
9398;SDS011;4739;49.334;8.792;2023-02-26T15:10:36;14.20;;;9.83;;
9398;SDS011;4739;49.334;8.792;2023-02-26T15:23:47;0.50;;;0.50;;
9398;SDS011;4739;49.334;8.792;2023-02-26T15:26:33;0.77;;;0.70;;
9398;SDS011;4739;49.334;8.792;2023-02-26T15:29:01;0.80;;;0.63;;
9398;SDS011;4739;49.334;8.792;2023-02-26T15:31:32;0.93;;;0.60;;
9398;SDS011;4739;49.334;8.792;2023-02-26T15:33:59;0.73;;;0.60;;
9398;SDS011;4739;49.334;8.792;2023-02-26T15:36:27;0.60;;;0.60;;
9398;SDS011;4739;49.334;8.792;2023-02-26T15:38:55;0.80;;;0.50;;
9398;SDS011;4739;49.334;8.792;2023-02-26T15:41:21;0.80;;;0.57;;
9398;SDS011;4739;49.334;8.792;2023-02-26T15:43:49;0.67;;;0.67;;
9398;SDS011;4739;49.334;8.792;2023-02-26T15:46:15;1.30;;;0.53;;
9398;SDS011;4739;49.334;8.792;2023-02-26T15:48:42;1.57;;;0.90;;
9398;SDS011;4739;49.334;8.792;2023-02-26T15:51:09;1.10;;;0.70;;
9398;SDS011;4739;49.334;8.792;2023-02-26T15:53:37;0.87;;;0.80;;
9398;SDS011;4739;49.334;8.792;2023-02-26T15:56:27;1.50;;;1.00;;
9398;SDS011;4739;49.334;8.792;2023-02-26T15:58:58;1.20;;;1.10;;
9398;SDS011;4739;49.334;8.792;2023-02-26T16:01:26;1.70;;;1.60;;
9398;SDS011;4739;49.334;8.792;2023-02-26T16:03:55;1.83;;;1.00;;
9398;SDS011;4739;49.334;8.792;2023-02-26T16:06:31;1.20;;;0.93;;
9398;SDS011;4739;49.334;8.792;2023-02-26T16:08:59;1.13;;;1.00;;
9398;SDS011;4739;49.334;8.792;2023-02-26T16:11:27;0.97;;;0.60;;
9398;SDS011;4739;49.334;8.792;2023-02-26T16:13:54;0.77;;;0.70;;
9398;SDS011;4739;49.334;8.792;2023-02-26T16:16:24;1.00;;;0.83;;
9398;SDS011;4739;49.334;8.792;2023-02-26T16:18:52;1.37;;;1.00;;
9398;SDS011;4739;49.334;8.792;2023-02-26T16:21:30;1.33;;;0.70;;
9398;SDS011;4739;49.334;8.792;2023-02-26T16:23:56;1.60;;;0.90;;
9398;SDS011;4739;49.334;8.792;2023-02-26T16:26:25;0.70;;;0.50;;
9398;SDS011;4739;49.334;8.792;2023-02-26T16:28:55;0.90;;;0.60;;
9398;SDS011;4739;49.334;8.792;2023-02-26T16:31:23;3.83;;;1.20;;
9398;SDS011;4739;49.334;8.792;2023-02-26T16:33:55;1.70;;;1.30;;
9398;SDS011;4739;49.334;8.792;2023-02-26T16:36:23;3.40;;;2.30;;
9398;SDS011;4739;49.334;8.792;2023-02-26T16:39:00;1.33;;;1.20;;
9398;SDS011;4739;49.334;8.792;2023-02-26T16:41:28;2.37;;;1.60;;
9398;SDS011;4739;49.334;8.792;2023-02-26T16:43:55;2.40;;;1.23;;
9398;SDS011;4739;49.334;8.792;2023-02-26T16:46:32;4.97;;;2.80;;
9398;SDS011;4739;49.334;8.792;2023-02-26T16:49:01;2.10;;;1.30;;
9398;SDS011;4739;49.334;8.792;2023-02-26T16:51:29;2.73;;;1.80;;
9398;SDS011;4739;49.334;8.792;2023-02-26T16:53:59;1.17;;;0.97;;
9398;SDS011;4739;49.334;8.792;2023-02-26T16:56:28;1.00;;;0.80;;
9398;SDS011;4739;49.334;8.792;2023-02-26T17:01:26;1.27;;;0.70;;
9398;SDS011;4739;49.334;8.792;2023-02-26T17:03:56;0.77;;;0.60;;
9398;SDS011;4739;49.334;8.792;2023-02-26T17:06:25;0.93;;;0.70;;
9398;SDS011;4739;49.334;8.792;2023-02-26T17:08:58;1.40;;;1.00;;
9398;SDS011;4739;49.334;8.792;2023-02-26T17:16:35;1.40;;;1.00;;
9398;SDS011;4739;49.334;8.792;2023-02-26T17:19:01;1.47;;;1.10;;
9398;SDS011;4739;49.334;8.792;2023-02-26T17:21:28;1.63;;;1.43;;
9398;SDS011;4739;49.334;8.792;2023-02-26T17:23:54;0.87;;;0.80;;
9398;SDS011;4739;49.334;8.792;2023-02-26T17:26:20;2.17;;;1.10;;
9398;SDS011;4739;49.334;8.792;2023-02-26T17:28:47;1.30;;;0.90;;
9398;SDS011;4739;49.334;8.792;2023-02-26T17:31:13;1.40;;;1.20;;
9398;SDS011;4739;49.334;8.792;2023-02-26T17:33:40;1.13;;;0.87;;
9398;SDS011;4739;49.334;8.792;2023-02-26T17:36:09;2.00;;;1.07;;
9398;SDS011;4739;49.334;8.792;2023-02-26T17:38:37;2.10;;;1.90;;
9398;SDS011;4739;49.334;8.792;2023-02-26T17:41:03;1.40;;;1.17;;
9398;SDS011;4739;49.334;8.792;2023-02-26T17:43:29;1.53;;;0.60;;
9398;SDS011;4739;49.334;8.792;2023-02-26T17:45:56;0.70;;;0.70;;
9398;SDS011;4739;49.334;8.792;2023-02-26T17:48:22;1.57;;;0.80;;
9398;SDS011;4739;49.334;8.792;2023-02-26T17:50:49;1.63;;;0.70;;
9398;SDS011;4739;49.334;8.792;2023-02-26T17:53:16;0.70;;;0.60;;
9398;SDS011;4739;49.334;8.792;2023-02-26T17:55:43;1.13;;;0.90;;
9398;SDS011;4739;49.334;8.792;2023-02-26T17:58:16;1.93;;;0.70;;
9398;SDS011;4739;49.334;8.792;2023-02-26T18:00:43;1.30;;;0.50;;
9398;SDS011;4739;49.334;8.792;2023-02-26T18:03:13;0.90;;;0.60;;
9398;SDS011;4739;49.334;8.792;2023-02-26T18:05:39;2.50;;;0.80;;
9398;SDS011;4739;49.334;8.792;2023-02-26T18:08:05;1.83;;;0.77;;
9398;SDS011;4739;49.334;8.792;2023-02-26T18:10:34;1.00;;;0.70;;
9398;SDS011;4739;49.334;8.792;2023-02-26T18:13:00;0.63;;;0.50;;
9398;SDS011;4739;49.334;8.792;2023-02-26T18:15:27;1.37;;;0.60;;
9398;SDS011;4739;49.334;8.792;2023-02-26T18:17:53;2.70;;;1.00;;